createdAt,value
2022-10-17T00:01:28.277Z,15.61
2022-10-17T00:03:54.714Z,15.62
2022-10-17T00:06:21.198Z,15.56
2022-10-17T00:08:47.626Z,15.51
2022-10-17T00:11:19.840Z,15.54
2022-10-17T00:13:47.915Z,15.52
2022-10-17T00:16:15.454Z,15.47
2022-10-17T00:18:41.969Z,15.46
2022-10-17T00:21:15.578Z,15.44
2022-10-17T00:23:42.017Z,15.22
2022-10-17T00:26:08.507Z,15.25
2022-10-17T00:28:35.252Z,15.39
2022-10-17T00:31:06.625Z,15.30
2022-10-17T00:33:35.189Z,15.48
2022-10-17T00:36:13.428Z,15.40
2022-10-17T00:38:41.348Z,15.32
2022-10-17T00:41:08.886Z,15.18
2022-10-17T00:43:53.617Z,15.22
2022-10-17T00:46:22.057Z,15.18
2022-10-17T00:48:54.470Z,15.19
2022-10-17T00:51:26.851Z,15.21
2022-10-17T00:53:53.503Z,15.15
2022-10-17T00:56:21.286Z,15.12
2022-10-17T00:58:48.506Z,15.21
2022-10-17T01:01:16.004Z,15.15
2022-10-17T01:03:42.928Z,15.11
2022-10-17T01:06:09.487Z,15.16
2022-10-17T01:08:36.361Z,15.06
2022-10-17T01:11:46.975Z,15.11
2022-10-17T01:14:26.018Z,15.09
2022-10-17T01:17:02.930Z,15.15
2022-10-17T01:19:59.313Z,15.11
2022-10-17T01:22:41.857Z,15.13
2022-10-17T01:25:39.935Z,15.13
2022-10-17T01:28:15.526Z,15.19
2022-10-17T01:30:47.739Z,15.15
2022-10-17T01:33:32.660Z,15.18
2022-10-17T01:36:11.395Z,15.07
2022-10-17T01:38:48.992Z,15.15
2022-10-17T01:41:42.196Z,15.07
2022-10-17T01:44:23.229Z,15.21
2022-10-17T01:46:51.067Z,15.17
2022-10-17T01:49:23.740Z,15.19
2022-10-17T01:51:57.637Z,15.17
2022-10-17T01:54:41.457Z,15.10
2022-10-17T01:57:14.069Z,15.08
2022-10-17T01:59:43.750Z,15.03
2022-10-17T02:02:11.900Z,15.05
2022-10-17T02:04:38.553Z,14.99
2022-10-17T02:07:12.456Z,14.90
2022-10-17T02:09:40.016Z,14.97
2022-10-17T02:12:17.641Z,14.97
2022-10-17T02:15:08.893Z,14.88
2022-10-17T02:17:57.265Z,14.89
2022-10-17T02:20:35.513Z,14.77
2022-10-17T02:26:02.933Z,14.56
2022-10-17T02:28:33.187Z,14.40
2022-10-17T02:31:22.645Z,14.41
2022-10-17T02:34:00.574Z,14.38
2022-10-17T02:36:32.432Z,14.28
2022-10-17T02:39:00.907Z,14.35
2022-10-17T02:43:58.810Z,14.24
2022-10-17T02:46:29.254Z,14.32
2022-10-17T02:49:00.921Z,14.34
2022-10-17T02:51:47.870Z,14.37
2022-10-17T02:54:34.411Z,14.33
2022-10-17T02:57:12.651Z,14.24
2022-10-17T02:59:41.835Z,14.23
2022-10-17T03:02:08.273Z,14.10
2022-10-17T03:04:34.892Z,14.06
2022-10-17T03:07:01.331Z,14.27
2022-10-17T03:09:27.973Z,14.09
2022-10-17T03:11:54.517Z,14.10
2022-10-17T03:14:20.968Z,14.08
2022-10-17T03:16:47.383Z,14.10
2022-10-17T03:19:13.840Z,14.18
2022-10-17T03:21:40.315Z,14.16
2022-10-17T03:24:07.138Z,14.06
2022-10-17T03:26:33.646Z,14.09
2022-10-17T03:29:00.115Z,13.94
2022-10-17T03:31:26.561Z,13.98
2022-10-17T03:33:53.087Z,13.89
2022-10-17T03:36:19.639Z,13.97
2022-10-17T03:38:46.421Z,13.81
2022-10-17T03:41:12.965Z,13.79
2022-10-17T03:43:40.071Z,13.96
2022-10-17T03:46:07.403Z,13.81
2022-10-17T03:48:34.210Z,13.91
2022-10-17T03:51:05.988Z,13.95
2022-10-17T03:53:33.179Z,13.94
2022-10-17T03:56:17.657Z,13.97
2022-10-17T03:58:44.544Z,14.01
2022-10-17T04:01:13.245Z,14.04
2022-10-17T04:03:40.959Z,14.11
2022-10-17T04:06:07.519Z,14.13
2022-10-17T04:08:34.742Z,14.12
2022-10-17T04:11:02.887Z,14.14
2022-10-17T04:13:29.680Z,14.12
2022-10-17T04:15:58.322Z,14.10
2022-10-17T04:18:25.598Z,14.04
2022-10-17T04:20:52.309Z,13.97
2022-10-17T04:23:19.165Z,14.01
2022-10-17T04:25:45.937Z,14.03
2022-10-17T04:28:12.399Z,13.96
2022-10-17T04:30:41.184Z,13.98
2022-10-17T04:33:10.074Z,14.05
2022-10-17T04:35:36.573Z,13.95
2022-10-17T04:38:03.011Z,13.92
2022-10-17T04:40:29.546Z,13.91
2022-10-17T04:42:56.017Z,14.02
2022-10-17T04:45:22.462Z,14.01
2022-10-17T04:47:48.915Z,13.95
2022-10-17T04:50:15.494Z,13.85
2022-10-17T04:52:41.947Z,13.90
2022-10-17T04:55:08.632Z,13.86
2022-10-17T04:57:35.789Z,13.85
2022-10-17T05:00:02.447Z,13.85
2022-10-17T05:02:29.221Z,13.79
2022-10-17T05:04:55.831Z,13.64
2022-10-17T05:07:22.256Z,13.67
2022-10-17T05:09:48.706Z,13.73
2022-10-17T05:12:15.111Z,13.80
2022-10-17T05:14:41.535Z,13.80
2022-10-17T05:17:08.638Z,13.82
2022-10-17T05:19:35.086Z,13.87
2022-10-17T05:22:01.521Z,13.73
2022-10-17T05:24:27.920Z,13.80
2022-10-17T05:26:54.320Z,13.88
2022-10-17T05:29:20.814Z,13.87
2022-10-17T05:31:47.255Z,13.76
2022-10-17T05:34:14.057Z,13.73
2022-10-17T05:36:40.805Z,13.85
2022-10-17T05:39:07.250Z,13.93
2022-10-17T05:41:33.705Z,13.96
2022-10-17T05:44:03.140Z,13.95
2022-10-17T05:46:31.938Z,13.94
2022-10-17T05:48:58.353Z,13.92
2022-10-17T05:51:24.833Z,13.93
2022-10-17T05:53:51.290Z,13.97
2022-10-17T05:56:19.123Z,14.00
2022-10-17T05:58:50.189Z,14.07
2022-10-17T06:01:18.164Z,14.05
2022-10-17T06:03:44.630Z,14.08
2022-10-17T06:06:13.017Z,14.08
2022-10-17T06:08:39.473Z,14.01
2022-10-17T06:11:09.241Z,14.05
2022-10-17T06:13:36.992Z,14.05
2022-10-17T06:16:03.480Z,14.02
2022-10-17T06:18:30.033Z,14.09
2022-10-17T06:21:03.333Z,14.22
2022-10-17T06:23:29.665Z,14.24
2022-10-17T06:26:03.322Z,14.29
2022-10-17T06:28:30.322Z,14.35
2022-10-17T06:30:57.018Z,14.40
2022-10-17T06:33:23.582Z,14.48
2022-10-17T06:35:54.700Z,14.47
2022-10-17T06:38:21.609Z,14.59
2022-10-17T06:40:48.184Z,14.74
2022-10-17T06:43:14.699Z,14.95
2022-10-17T06:45:41.968Z,15.03
2022-10-17T06:48:08.853Z,15.05
2022-10-17T06:50:35.559Z,15.10
2022-10-17T06:53:02.086Z,15.05
2022-10-17T06:55:28.609Z,15.02
2022-10-17T06:57:56.370Z,14.96
2022-10-17T07:00:23.558Z,14.98
2022-10-17T07:02:50.276Z,15.07
2022-10-17T07:05:17.345Z,15.25
2022-10-17T07:07:45.527Z,15.28
2022-10-17T07:10:13.847Z,15.52
2022-10-17T07:12:40.337Z,15.59
2022-10-17T07:15:07.178Z,15.83
2022-10-17T07:17:33.605Z,16.04
2022-10-17T07:20:00.113Z,16.08
2022-10-17T07:22:26.577Z,16.21
2022-10-17T07:24:53.020Z,16.52
2022-10-17T07:27:19.475Z,16.78
2022-10-17T07:29:45.923Z,17.03
2022-10-17T07:32:12.413Z,17.14
2022-10-17T07:34:38.848Z,17.25
2022-10-17T07:37:06.997Z,17.63
2022-10-17T07:39:35.601Z,17.98
2022-10-17T07:42:02.091Z,18.10
2022-10-17T07:44:28.518Z,18.37
2022-10-17T07:46:54.977Z,18.14
2022-10-17T07:49:21.385Z,18.41
2022-10-17T07:51:47.982Z,18.82
2022-10-17T07:54:14.672Z,19.18
2022-10-17T07:56:41.225Z,19.46
2022-10-17T07:59:09.395Z,19.71
2022-10-17T08:01:36.940Z,19.98
2022-10-17T08:04:03.468Z,20.30
2022-10-17T08:06:29.913Z,20.77
2022-10-17T08:08:57.865Z,20.87
2022-10-17T08:11:25.344Z,20.62
2022-10-17T08:13:52.003Z,20.54
2022-10-17T08:16:18.524Z,21.23
2022-10-17T08:18:45.088Z,20.93
2022-10-17T08:21:13.324Z,21.58
2022-10-17T08:23:40.181Z,22.05
2022-10-17T08:26:10.453Z,22.27
2022-10-17T08:28:38.796Z,21.99
2022-10-17T08:31:11.103Z,22.13
2022-10-17T08:33:38.032Z,22.57
2022-10-17T08:36:05.729Z,22.94
2022-10-17T08:38:35.546Z,23.48
2022-10-17T08:41:13.152Z,23.91
2022-10-17T08:43:54.577Z,24.23
2022-10-17T08:46:21.354Z,23.85
2022-10-17T08:48:51.320Z,23.73
2022-10-17T08:51:36.194Z,23.60
2022-10-17T08:54:20.510Z,23.72
2022-10-17T08:56:50.347Z,24.07
2022-10-17T08:59:30.861Z,24.15
2022-10-17T09:02:15.315Z,24.40
2022-10-17T09:04:58.982Z,24.38
2022-10-17T09:07:35.639Z,23.79
2022-10-17T09:10:20.671Z,24.46
2022-10-17T09:12:53.110Z,24.73
2022-10-17T09:15:35.034Z,24.64
2022-10-17T09:18:21.091Z,24.73
2022-10-17T09:20:56.168Z,25.58
2022-10-17T09:23:43.082Z,25.54
2022-10-17T09:26:11.339Z,25.09
2022-10-17T09:28:41.643Z,25.45
2022-10-17T09:31:19.343Z,26.08
2022-10-17T09:33:54.253Z,26.38
2022-10-17T09:36:33.549Z,27.27
2022-10-17T09:39:20.071Z,27.30
2022-10-17T09:41:50.578Z,27.71
2022-10-17T09:44:30.052Z,27.97
2022-10-17T09:47:18.014Z,27.62
2022-10-17T09:49:47.157Z,27.91
2022-10-17T09:52:20.449Z,27.62
2022-10-17T09:55:01.667Z,28.08
2022-10-17T09:57:28.086Z,28.76
2022-10-17T10:00:03.621Z,29.39
2022-10-17T10:02:31.662Z,29.48
2022-10-17T10:05:05.047Z,29.55
2022-10-17T10:07:35.863Z,28.92
2022-10-17T10:10:04.422Z,29.16
2022-10-17T10:12:38.983Z,29.76
2022-10-17T10:15:30.643Z,30.40
2022-10-17T10:17:57.123Z,30.88
2022-10-17T10:20:31.928Z,31.01
2022-10-17T10:23:08.174Z,30.86
2022-10-17T10:25:36.083Z,31.12
2022-10-17T10:28:09.966Z,30.94
2022-10-17T10:30:39.812Z,30.83
2022-10-17T10:33:11.290Z,30.81
2022-10-17T10:35:37.970Z,30.93
2022-10-17T10:38:15.799Z,30.95
2022-10-17T10:40:54.743Z,31.07
2022-10-17T10:43:32.033Z,31.45
2022-10-17T10:45:59.475Z,31.30
2022-10-17T10:48:37.092Z,31.69
2022-10-17T10:51:14.313Z,31.67
2022-10-17T10:53:58.361Z,32.05
2022-10-17T10:56:49.793Z,32.19
2022-10-17T10:59:30.730Z,32.44
2022-10-17T11:02:09.423Z,32.41
2022-10-17T11:04:51.239Z,32.69
2022-10-17T11:07:25.801Z,32.28
2022-10-17T11:09:59.977Z,31.97
2022-10-17T11:12:34.639Z,32.33
2022-10-17T11:15:25.298Z,31.98
2022-10-17T11:17:59.195Z,31.88
2022-10-17T11:20:41.757Z,31.70
2022-10-17T11:23:14.017Z,31.95
2022-10-17T11:25:41.230Z,32.27
2022-10-17T11:28:16.961Z,31.90
2022-10-17T11:31:03.313Z,31.74
2022-10-17T11:33:44.214Z,31.91
2022-10-17T11:36:11.214Z,31.75
2022-10-17T11:38:50.898Z,31.82
2022-10-17T11:41:24.272Z,31.74
2022-10-17T11:43:56.976Z,31.68
2022-10-17T11:46:26.819Z,32.19
2022-10-17T11:48:55.978Z,32.11
2022-10-17T11:54:16.597Z,32.03
2022-10-17T11:57:14.974Z,31.92
2022-10-17T11:59:57.110Z,32.04
2022-10-17T12:02:50.961Z,32.05
2022-10-17T12:05:33.267Z,32.34
2022-10-17T12:08:09.625Z,32.29
2022-10-17T12:10:44.913Z,32.33
2022-10-17T12:13:30.263Z,32.32
2022-10-17T12:15:58.077Z,32.23
2022-10-17T12:18:27.292Z,31.95
2022-10-17T12:21:00.993Z,32.46
2022-10-17T12:23:30.078Z,32.27
2022-10-17T12:26:04.829Z,32.47
2022-10-17T12:28:37.664Z,31.45
2022-10-17T12:31:06.285Z,30.67
2022-10-17T12:33:48.251Z,30.80
2022-10-17T12:36:17.738Z,31.00
2022-10-17T12:38:50.448Z,31.23
2022-10-17T12:41:37.178Z,31.21
2022-10-17T12:44:28.219Z,30.93
2022-10-17T12:47:09.410Z,31.10
2022-10-17T12:49:42.337Z,30.92
2022-10-17T12:52:21.646Z,31.16
2022-10-17T12:55:10.934Z,31.36
2022-10-17T12:57:44.448Z,31.63
2022-10-17T13:00:20.676Z,31.28
2022-10-17T13:02:49.010Z,31.21
2022-10-17T13:05:34.082Z,31.10
2022-10-17T13:08:03.601Z,30.73
2022-10-17T13:10:34.656Z,30.86
2022-10-17T13:13:08.971Z,30.92
2022-10-17T13:15:37.097Z,30.40
2022-10-17T13:18:03.999Z,30.44
2022-10-17T13:20:32.095Z,30.21
2022-10-17T13:22:59.576Z,30.26
2022-10-17T13:25:28.345Z,30.00
2022-10-17T13:28:13.723Z,30.09
2022-10-17T13:30:40.243Z,29.80
2022-10-17T13:33:31.015Z,30.06
2022-10-17T13:36:01.335Z,30.25
2022-10-17T13:38:32.475Z,29.41
2022-10-17T13:41:10.817Z,28.85
2022-10-17T13:43:43.862Z,28.68
2022-10-17T13:46:39.447Z,28.81
2022-10-17T13:49:22.178Z,28.58
2022-10-17T13:51:53.901Z,28.60
2022-10-17T13:54:41.550Z,28.38
2022-10-17T13:57:24.606Z,28.05
2022-10-17T13:59:55.040Z,28.10
2022-10-17T14:02:24.761Z,27.97
2022-10-17T14:05:20.738Z,27.88
2022-10-17T14:08:12.453Z,27.91
2022-10-17T14:10:42.288Z,27.74
2022-10-17T14:13:20.946Z,27.45
2022-10-17T14:15:47.593Z,27.09
2022-10-17T14:18:19.611Z,27.00
2022-10-17T14:21:31.724Z,27.02
2022-10-17T14:23:43.138Z,26.84
2022-10-17T14:26:21.208Z,26.82
2022-10-17T14:29:02.480Z,26.54
2022-10-17T14:31:32.066Z,26.53
2022-10-17T14:34:01.069Z,26.34
2022-10-17T14:36:42.704Z,26.30
2022-10-17T14:39:20.243Z,26.13
2022-10-17T14:41:47.939Z,26.17
2022-10-17T14:44:27.630Z,26.10
2022-10-17T14:46:59.273Z,25.84
2022-10-17T14:49:35.187Z,25.83
2022-10-17T14:52:14.917Z,25.72
2022-10-17T14:54:49.811Z,25.76
2022-10-17T14:57:23.581Z,25.46
2022-10-17T14:59:54.626Z,25.42
2022-10-17T15:02:22.890Z,25.39
2022-10-17T15:04:49.354Z,25.30
2022-10-17T15:07:17.271Z,25.35
2022-10-17T15:09:45.019Z,25.35
2022-10-17T15:12:17.278Z,25.24
2022-10-17T15:14:44.626Z,25.20
2022-10-17T15:17:34.720Z,25.06
2022-10-17T15:20:01.285Z,24.96
2022-10-17T15:22:27.989Z,24.82
2022-10-17T15:24:54.759Z,24.72
2022-10-17T15:27:23.525Z,24.68
2022-10-17T15:29:51.494Z,24.43
2022-10-17T15:32:17.946Z,24.47
2022-10-17T15:34:44.847Z,24.44
2022-10-17T15:37:20.820Z,24.37
2022-10-17T15:39:55.215Z,24.34
2022-10-17T15:42:31.139Z,24.28
2022-10-17T15:44:58.500Z,24.35
2022-10-17T15:47:34.034Z,24.27
2022-10-17T15:50:01.613Z,24.22
2022-10-17T15:52:28.520Z,24.08
2022-10-17T15:54:56.496Z,23.96
2022-10-17T15:57:28.126Z,23.92
2022-10-17T15:59:57.302Z,23.85
2022-10-17T16:02:24.134Z,23.72
2022-10-17T16:04:52.026Z,23.60
2022-10-17T16:07:19.706Z,23.55
2022-10-17T16:09:46.334Z,23.44
2022-10-17T16:12:28.939Z,23.33
2022-10-17T16:14:55.541Z,23.18
2022-10-17T16:17:21.976Z,23.15
2022-10-17T16:19:48.415Z,23.10
2022-10-17T16:22:36.740Z,23.02
2022-10-17T16:25:19.309Z,23.02
2022-10-17T16:27:47.273Z,22.91
2022-10-17T16:30:14.083Z,22.81
2022-10-17T16:32:40.573Z,22.65
2022-10-17T16:35:08.058Z,22.58
2022-10-17T16:37:35.796Z,22.52
2022-10-17T16:40:04.391Z,22.49
2022-10-17T16:42:31.139Z,22.38
2022-10-17T16:44:58.036Z,22.28
2022-10-17T16:47:24.500Z,22.12
2022-10-17T16:49:51.059Z,22.02
2022-10-17T16:52:17.569Z,21.91
2022-10-17T16:54:44.086Z,21.84
2022-10-17T16:57:10.576Z,21.85
2022-10-17T16:59:37.022Z,21.56
2022-10-17T17:02:03.537Z,21.30
2022-10-17T17:04:30.240Z,21.20
2022-10-17T17:06:56.686Z,21.13
2022-10-17T17:09:23.204Z,21.02
2022-10-17T17:11:49.715Z,20.90
2022-10-17T17:14:16.154Z,20.83
2022-10-17T17:16:43.421Z,20.76
2022-10-17T17:19:15.218Z,20.60
2022-10-17T17:21:47.528Z,20.69
2022-10-17T17:24:14.085Z,20.71
2022-10-17T17:26:41.549Z,20.62
2022-10-17T17:29:08.156Z,20.40
2022-10-17T17:31:35.647Z,20.33
2022-10-17T17:34:02.698Z,20.14
2022-10-17T17:36:31.825Z,20.08
2022-10-17T17:39:00.080Z,20.15
2022-10-17T17:41:27.688Z,20.29
2022-10-17T17:43:54.850Z,20.30
2022-10-17T17:46:22.732Z,20.22
2022-10-17T17:48:50.308Z,20.36
2022-10-17T17:51:20.035Z,20.19
2022-10-17T17:53:47.161Z,20.14
2022-10-17T17:56:28.020Z,20.18
2022-10-17T17:59:00.100Z,20.04
2022-10-17T18:01:28.903Z,19.97
2022-10-17T18:03:56.207Z,19.96
2022-10-17T18:06:23.391Z,19.99
2022-10-17T18:08:52.145Z,20.00
2022-10-17T18:11:21.205Z,20.03
2022-10-17T18:13:53.955Z,19.92
2022-10-17T18:16:20.398Z,19.95
2022-10-17T18:18:46.818Z,19.88
2022-10-17T18:21:14.224Z,19.80
2022-10-17T18:23:43.689Z,19.73
2022-10-17T18:26:10.187Z,19.77
2022-10-17T18:28:38.323Z,19.68
2022-10-17T18:31:11.588Z,19.58
2022-10-17T18:33:38.298Z,19.44
2022-10-17T18:36:07.412Z,19.64
2022-10-17T18:38:34.440Z,19.63
2022-10-17T18:41:05.085Z,19.53
2022-10-17T18:43:33.858Z,19.39
2022-10-17T18:46:13.880Z,19.29
2022-10-17T18:48:44.392Z,19.28
2022-10-17T18:51:12.252Z,19.28
2022-10-17T18:53:43.431Z,19.18
2022-10-17T18:56:10.925Z,19.25
2022-10-17T18:58:38.778Z,19.22
2022-10-17T19:01:17.500Z,18.94
2022-10-17T19:03:46.327Z,18.74
2022-10-17T19:06:14.996Z,18.56
2022-10-17T19:08:42.485Z,18.87
2022-10-17T19:11:31.605Z,18.80
2022-10-17T19:14:01.569Z,18.80
2022-10-17T19:16:31.555Z,18.61
2022-10-17T19:19:11.573Z,18.74
2022-10-17T19:21:38.659Z,18.78
2022-10-17T19:24:07.950Z,18.59
2022-10-17T19:26:36.474Z,18.64
2022-10-17T19:29:04.625Z,18.63
2022-10-17T19:31:32.403Z,18.62
2022-10-17T19:33:59.501Z,18.54
2022-10-17T19:36:32.280Z,18.52
2022-10-17T19:39:02.258Z,18.54
2022-10-17T19:41:28.864Z,18.54
2022-10-17T19:43:55.436Z,18.50
2022-10-17T19:46:24.785Z,18.28
2022-10-17T19:48:51.898Z,18.31
2022-10-17T19:51:20.802Z,18.42
2022-10-17T19:53:47.685Z,18.50
2022-10-17T19:56:18.461Z,18.28
2022-10-17T19:58:46.605Z,18.28
2022-10-17T20:01:22.162Z,18.21
2022-10-17T20:03:49.278Z,18.19
2022-10-17T20:06:17.008Z,18.22
2022-10-17T20:08:44.318Z,18.01
2022-10-17T20:11:14.295Z,17.97
2022-10-17T20:13:41.091Z,18.03
2022-10-17T20:16:11.304Z,17.99
2022-10-17T20:18:38.286Z,17.85
2022-10-17T20:21:10.605Z,17.89
2022-10-17T20:23:38.081Z,17.94
2022-10-17T20:26:25.385Z,17.91
2022-10-17T20:28:53.050Z,17.93
2022-10-17T20:31:20.507Z,17.86
2022-10-17T20:33:46.980Z,17.84
2022-10-17T20:36:16.548Z,17.86
2022-10-17T20:38:43.026Z,17.81
2022-10-17T20:41:10.519Z,17.64
2022-10-17T20:43:38.099Z,17.55
2022-10-17T20:46:22.776Z,17.63
2022-10-17T20:48:54.539Z,17.73
2022-10-17T20:51:21.742Z,17.63
2022-10-17T20:53:48.919Z,17.58
2022-10-17T20:56:34.335Z,17.39
2022-10-17T20:59:03.660Z,17.30
2022-10-17T21:01:31.901Z,17.42
2022-10-17T21:04:06.134Z,17.66
2022-10-17T21:06:42.653Z,17.66
2022-10-17T21:09:09.377Z,17.64
2022-10-17T21:11:35.808Z,17.49
2022-10-17T21:14:04.967Z,17.44
2022-10-17T21:16:32.698Z,17.45
2022-10-17T21:18:59.921Z,17.49
2022-10-17T21:21:33.588Z,17.55
2022-10-17T21:24:06.422Z,17.50
2022-10-17T21:26:34.552Z,17.47
2022-10-17T21:29:05.886Z,17.45
2022-10-17T21:31:37.490Z,17.47
2022-10-17T21:34:12.053Z,17.51
2022-10-17T21:36:38.915Z,17.40
2022-10-17T21:39:05.521Z,17.34
2022-10-17T21:41:32.289Z,17.37
2022-10-17T21:44:04.704Z,17.19
2022-10-17T21:46:31.780Z,17.19
2022-10-17T21:49:00.030Z,17.26
2022-10-17T21:51:27.602Z,17.23
2022-10-17T21:53:56.034Z,17.09
2022-10-17T21:56:30.734Z,17.09
2022-10-17T21:58:58.451Z,17.12
2022-10-17T22:01:28.002Z,17.05
2022-10-17T22:03:56.926Z,17.15
2022-10-17T22:06:39.235Z,17.12
2022-10-17T22:09:09.599Z,17.03
2022-10-17T22:11:36.607Z,16.94
2022-10-17T22:14:11.026Z,16.97
2022-10-17T22:16:38.445Z,16.98
2022-10-17T22:19:06.649Z,16.93
2022-10-17T22:21:35.451Z,16.94
2022-10-17T22:24:05.370Z,16.86
2022-10-17T22:26:33.463Z,16.86
2022-10-17T22:28:59.915Z,16.82
2022-10-17T22:31:26.629Z,16.90
2022-10-17T22:33:53.129Z,16.82
2022-10-17T22:36:19.595Z,16.98
2022-10-17T22:38:46.178Z,16.96
2022-10-17T22:41:12.609Z,16.96
2022-10-17T22:43:39.063Z,17.11
2022-10-17T22:46:07.223Z,17.16
2022-10-17T22:48:33.983Z,16.91
2022-10-17T22:51:01.219Z,16.85
2022-10-17T22:53:29.409Z,16.80
2022-10-17T22:56:00.335Z,16.89
2022-10-17T22:58:28.480Z,16.97
2022-10-17T23:00:55.810Z,16.93
2022-10-17T23:03:23.731Z,16.89
2022-10-17T23:05:50.540Z,16.83
2022-10-17T23:08:20.394Z,16.82
2022-10-17T23:10:47.844Z,16.64
2022-10-17T23:13:15.105Z,16.75
2022-10-17T23:15:42.455Z,16.80
2022-10-17T23:18:10.016Z,16.73
2022-10-17T23:20:37.651Z,16.77
2022-10-17T23:23:05.049Z,16.77
2022-10-17T23:25:33.921Z,16.73
2022-10-17T23:28:00.431Z,16.71
2022-10-17T23:30:26.902Z,16.77
2022-10-17T23:32:53.567Z,16.76
2022-10-17T23:35:20.015Z,16.62
2022-10-17T23:37:46.428Z,16.69
2022-10-17T23:40:13.161Z,16.59
2022-10-17T23:42:39.594Z,16.50
2022-10-17T23:45:06.759Z,16.44
2022-10-17T23:47:33.533Z,16.38
2022-10-17T23:50:00.313Z,16.42
2022-10-17T23:52:26.729Z,16.51
2022-10-17T23:54:53.154Z,16.50
2022-10-17T23:57:19.581Z,16.35
2022-10-17T23:59:46.013Z,16.41
